Time,TemperatureF,DewpointF,PressureIn,WindDirection,WindDirectionDegrees,WindSpeedMPH,WindSpeedGustMPH,Humidity,HourlyPrecipIn,Conditions,Clouds,dailyrainin,SoftwareType,DateUTC
2013-08-05 00:01:00,65.0,40.0,-100.00,NW,324,3.0,3.0,40,-99.99,,,-99.99,,2013-08-05 07:01:00,
2013-08-05 00:12:00,65.0,40.0,-100.00,NW,324,3.0,3.0,40,-99.99,,,-99.99,,2013-08-05 07:12:00,
2013-08-05 00:32:00,64.0,34.0,-100.00,NW,313,2.0,3.0,32,-99.99,,,-99.99,,2013-08-05 07:32:00,
2013-08-05 00:42:00,64.0,32.0,-100.00,NW,320,2.0,2.0,30,-99.99,,,-99.99,,2013-08-05 07:42:00,
2013-08-05 00:53:00,65.0,30.0,-100.00,NW,323,2.0,3.0,27,-99.99,,,-99.99,,2013-08-05 07:53:00,
2013-08-05 01:53:00,66.0,23.0,-100.00,NW,315,1.0,2.0,19,-99.99,,,-99.99,,2013-08-05 08:53:00,
2013-08-05 10:02:00,81.0,14.0,-100.00,WNW,294,4.0,7.0,8,-99.99,,,-99.99,,2013-08-05 17:02:00,
2013-08-05 10:12:00,81.0,14.0,-100.00,WNW,298,5.0,9.0,8,-99.99,,,-99.99,,2013-08-05 17:12:00,
2013-08-05 10:43:00,82.0,18.0,-100.00,NW,307,6.0,11.0,9,-99.99,,,-99.99,,2013-08-05 17:43:00,
2013-08-05 10:53:00,82.0,18.0,-100.00,NW,307,6.0,11.0,9,-99.99,,,-99.99,,2013-08-05 17:53:00,
2013-08-05 11:03:00,82.0,20.0,-100.00,WNW,293,6.0,12.0,10,-99.99,,,-99.99,,2013-08-05 18:03:00,
2013-08-05 11:12:00,82.0,20.0,-100.00,WNW,293,6.0,12.0,10,-99.99,,,-99.99,,2013-08-05 18:12:00,
2013-08-05 11:22:00,82.0,18.0,-100.00,WNW,297,6.0,9.0,9,-99.99,,,-99.99,,2013-08-05 18:22:00,
2013-08-05 11:32:00,83.0,21.0,-100.00,WNW,300,6.0,12.0,10,-99.99,,,-99.99,,2013-08-05 18:32:00,
2013-08-05 11:44:00,82.0,15.0,-100.00,WNW,287,6.0,10.0,8,-99.99,,,-99.99,,2013-08-05 18:44:00,
2013-08-05 11:53:00,82.0,15.0,-100.00,WNW,287,6.0,10.0,8,-99.99,,,-99.99,,2013-08-05 18:53:00,
2013-08-05 12:12:00,82.0,22.0,-100.00,West,273,9.0,13.0,11,-99.99,,,-99.99,,2013-08-05 19:12:00,
2013-08-05 12:45:00,83.0,23.0,-100.00,WNW,283,8.0,14.0,11,-99.99,,,-99.99,,2013-08-05 19:45:00,
2013-08-05 12:53:00,83.0,23.0,-100.00,WNW,283,8.0,14.0,11,-99.99,,,-99.99,,2013-08-05 19:53:00,
2013-08-05 13:13:00,83.0,25.0,-100.00,WNW,287,10.0,16.0,12,-99.99,,,-99.99,,2013-08-05 20:13:00,
2013-08-05 13:22:00,84.0,24.0,-100.00,WNW,294,10.0,15.0,11,-99.99,,,-99.99,,2013-08-05 20:22:00,
2013-08-05 13:33:00,84.0,24.0,-100.00,WNW,283,10.0,17.0,11,-99.99,,,-99.99,,2013-08-05 20:33:00,
2013-08-05 13:44:00,83.0,23.0,-100.00,West,281,10.0,16.0,11,-99.99,,,-99.99,,2013-08-05 20:44:00,
2013-08-05 14:02:00,83.0,23.0,-100.00,WNW,288,9.0,15.0,11,-99.99,,,-99.99,,2013-08-05 21:02:00,
2013-08-05 14:44:00,82.0,28.0,-100.00,West,276,10.0,18.0,14,-99.99,,,-99.99,,2013-08-05 21:44:00,
2013-08-05 14:53:00,82.0,28.0,-100.00,West,276,10.0,18.0,14,-99.99,,,-99.99,,2013-08-05 21:53:00,
2013-08-05 15:03:00,82.0,31.0,-100.00,West,281,11.0,16.0,16,-99.99,,,-99.99,,2013-08-05 22:03:00,
2013-08-05 15:53:00,82.0,37.0,-100.00,WNW,286,10.0,19.0,20,-99.99,,,-99.99,,2013-08-05 22:53:00,
2013-08-05 16:02:00,82.0,36.0,-100.00,WNW,290,9.0,16.0,19,-99.99,,,-99.99,,2013-08-05 23:02:00,
2013-08-05 16:12:00,81.0,41.0,-100.00,West,279,11.0,19.0,24,-99.99,,,-99.99,,2013-08-05 23:12:00,
2013-08-05 16:22:00,81.0,43.0,-100.00,West,280,11.0,17.0,26,-99.99,,,-99.99,,2013-08-05 23:22:00,
2013-08-05 16:33:00,81.0,43.0,-100.00,WNW,291,9.0,15.0,26,-99.99,,,-99.99,,2013-08-05 23:33:00,
2013-08-05 16:43:00,79.0,44.0,-100.00,WNW,297,9.0,15.0,29,-99.99,,,-99.99,,2013-08-05 23:43:00,
2013-08-05 17:02:00,79.0,47.0,-100.00,WNW,289,10.0,15.0,32,-99.99,,,-99.99,,2013-08-06 00:02:00,
2013-08-05 17:13:00,79.0,47.0,-100.00,WNW,289,10.0,15.0,32,-99.99,,,-99.99,,2013-08-06 00:13:00,
2013-08-05 17:33:00,78.0,47.0,-100.00,WNW,295,9.0,14.0,33,-99.99,,,-99.99,,2013-08-06 00:33:00,
2013-08-05 17:44:00,77.0,47.0,-100.00,WNW,299,11.0,16.0,35,-99.99,,,-99.99,,2013-08-06 00:44:00,
2013-08-05 17:54:00,76.0,47.0,-100.00,WNW,300,10.0,15.0,36,-99.99,,,-99.99,,2013-08-06 00:54:00,
2013-08-05 18:02:00,76.0,48.0,-100.00,WNW,296,8.0,12.0,37,-99.99,,,-99.99,,2013-08-06 01:02:00,
2013-08-05 18:12:00,76.0,48.0,-100.00,WNW,296,8.0,12.0,37,-99.99,,,-99.99,,2013-08-06 01:12:00,
2013-08-05 18:22:00,76.0,47.0,-100.00,WNW,298,8.0,13.0,36,-99.99,,,-99.99,,2013-08-06 01:22:00,
2013-08-05 18:33:00,76.0,46.0,-100.00,NW,315,7.0,13.0,35,-99.99,,,-99.99,,2013-08-06 01:33:00,
2013-08-05 18:53:00,76.0,46.0,-100.00,NW,307,6.0,10.0,34,-99.99,,,-99.99,,2013-08-06 01:53:00,
2013-08-05 19:03:00,75.0,46.0,-100.00,WNW,299,7.0,10.0,36,-99.99,,,-99.99,,2013-08-06 02:03:00,
2013-08-05 19:32:00,74.0,47.0,-100.00,WNW,301,6.0,10.0,38,-99.99,,,-99.99,,2013-08-06 02:32:00,
2013-08-05 20:01:00,70.0,49.0,-100.00,NW,325,4.0,5.0,47,-99.99,,,-99.99,,2013-08-06 03:01:00,
2013-08-05 20:12:00,70.0,49.0,-100.00,NW,325,4.0,5.0,47,-99.99,,,-99.99,,2013-08-06 03:12:00,
2013-08-05 20:33:00,68.0,49.0,-100.00,NNW,328,4.0,5.0,51,-99.99,,,-99.99,,2013-08-06 03:33:00,
2013-08-05 20:45:00,67.0,49.0,-100.00,NNW,327,3.0,4.0,52,-99.99,,,-99.99,,2013-08-06 03:45:00,
2013-08-05 20:52:00,67.0,49.0,-100.00,NNW,327,3.0,4.0,52,-99.99,,,-99.99,,2013-08-06 03:52:00,
2013-08-05 21:11:00,67.0,49.0,-100.00,NNW,334,3.0,4.0,52,-99.99,,,-99.99,,2013-08-06 04:11:00,
2013-08-05 21:33:00,67.0,48.0,-100.00,NNW,336,2.0,2.0,51,-99.99,,,-99.99,,2013-08-06 04:33:00,
2013-08-05 21:53:00,67.0,47.0,-100.00,NW,326,2.0,3.0,49,-99.99,,,-99.99,,2013-08-06 04:53:00,
2013-08-05 22:02:00,67.0,47.0,-100.00,NNW,329,3.0,5.0,48,-99.99,,,-99.99,,2013-08-06 05:02:00,
2013-08-05 22:21:00,66.0,45.0,-100.00,NNW,339,3.0,4.0,47,-99.99,,,-99.99,,2013-08-06 05:21:00,
2013-08-05 22:32:00,67.0,43.0,-100.00,NNW,329,4.0,4.0,41,-99.99,,,-99.99,,2013-08-06 05:32:00,
2013-08-05 22:43:00,65.0,43.0,-100.00,NW,319,3.0,5.0,45,-99.99,,,-99.99,,2013-08-06 05:43:00,
2013-08-05 22:53:00,65.0,42.0,-100.00,NW,321,4.0,5.0,43,-99.99,,,-99.99,,2013-08-06 05:53:00,
2013-08-05 23:01:00,64.0,40.0,-100.00,North,350,3.0,5.0,41,-99.99,,,-99.99,,2013-08-06 06:01:00,
2013-08-05 23:11:00,64.0,40.0,-100.00,North,350,3.0,5.0,41,-99.99,,,-99.99,,2013-08-06 06:11:00,
2013-08-05 23:22:00,65.0,39.0,-100.00,NNW,328,2.0,3.0,39,-99.99,,,-99.99,,2013-08-06 06:22:00,
2013-08-05 23:32:00,65.0,37.0,-100.00,WNW,291,1.0,3.0,36,-99.99,,,-99.99,,2013-08-06 06:32:00,
2013-08-05 23:43:00,65.0,37.0,-100.00,WSW,255,0.0,1.0,35,-99.99,,,-99.99,,2013-08-06 06:43:00,
2013-08-05 23:52:00,65.0,37.0,-100.00,WSW,255,0.0,1.0,35,-99.99,,,-99.99,,2013-08-06 06:52:00,